createdAt,value
2022-10-22T00:00:00.834Z,88.31
2022-10-22T00:00:10.891Z,88.31
2022-10-22T00:00:20.668Z,88.31
2022-10-22T00:00:30.709Z,88.21
2022-10-22T00:00:40.670Z,88.21
2022-10-22T00:00:50.825Z,88.21
2022-10-22T00:01:00.882Z,88.21
2022-10-22T00:01:10.779Z,88.31
2022-10-22T00:01:20.726Z,88.31
2022-10-22T00:01:30.741Z,88.31
2022-10-22T00:01:40.798Z,88.31
2022-10-22T00:01:50.738Z,88.21
2022-10-22T00:02:00.872Z,88.21
2022-10-22T00:02:10.647Z,88.21
2022-10-22T00:02:20.970Z,88.31
2022-10-22T00:02:30.927Z,88.31
2022-10-22T00:02:40.862Z,88.31
2022-10-22T00:02:50.717Z,88.31
2022-10-22T00:03:00.725Z,88.31
2022-10-22T00:03:10.858Z,88.31
2022-10-22T00:03:20.910Z,88.31
2022-10-22T00:03:30.880Z,88.31
2022-10-22T00:03:40.774Z,88.31
2022-10-22T00:03:50.890Z,88.31
2022-10-22T00:04:00.771Z,88.31
2022-10-22T00:04:10.852Z,88.42
2022-10-22T00:04:20.920Z,88.42
2022-10-22T00:04:34.458Z,88.51
2022-10-22T00:04:40.902Z,88.51
2022-10-22T00:04:50.903Z,88.51
2022-10-22T00:05:00.763Z,88.51
2022-10-22T00:05:10.762Z,88.51
2022-10-22T00:05:20.848Z,88.51
2022-10-22T00:05:30.724Z,88.51
2022-10-22T00:05:40.695Z,88.62
2022-10-22T00:05:50.886Z,88.62
2022-10-22T00:06:00.908Z,88.62
2022-10-22T00:06:10.616Z,88.62
2022-10-22T00:06:20.903Z,88.62
2022-10-22T00:06:30.668Z,88.62
2022-10-22T00:06:40.662Z,88.62
2022-10-22T00:06:50.831Z,88.62
2022-10-22T00:07:00.892Z,88.62
2022-10-22T00:07:10.776Z,88.62
2022-10-22T00:07:20.698Z,88.72
2022-10-22T00:07:30.675Z,88.72
2022-10-22T00:07:40.975Z,88.72
2022-10-22T00:07:50.945Z,88.82
2022-10-22T00:08:00.810Z,88.82
2022-10-22T00:08:10.728Z,88.82
2022-10-22T00:08:20.700Z,88.82
2022-10-22T00:08:30.968Z,88.82
2022-10-22T00:08:40.678Z,88.82
2022-10-22T00:08:50.858Z,88.82
2022-10-22T00:09:00.901Z,88.82
2022-10-22T00:09:10.926Z,88.82
2022-10-22T00:09:20.799Z,88.82
2022-10-22T00:09:30.876Z,88.72
2022-10-22T00:09:40.873Z,88.72
2022-10-22T00:09:50.843Z,88.72
2022-10-22T00:10:00.683Z,88.72
2022-10-22T00:10:10.773Z,88.72
2022-10-22T00:10:20.882Z,88.72
2022-10-22T00:10:30.802Z,88.72
2022-10-22T00:10:40.716Z,88.72
2022-10-22T00:10:50.762Z,88.72
2022-10-22T00:11:00.663Z,88.72
2022-10-22T00:11:10.809Z,88.72
2022-10-22T00:11:20.863Z,88.72
2022-10-22T00:11:30.646Z,88.72
2022-10-22T00:11:40.640Z,88.72
2022-10-22T00:11:50.810Z,88.72
2022-10-22T00:12:00.659Z,88.72
2022-10-22T00:12:10.780Z,88.72
2022-10-22T00:12:20.713Z,88.72
2022-10-22T00:12:30.816Z,88.72
2022-10-22T00:12:40.740Z,88.72
2022-10-22T00:12:50.736Z,88.82
2022-10-22T00:13:00.604Z,88.82
2022-10-22T00:13:10.762Z,88.82
2022-10-22T00:13:20.685Z,88.82
2022-10-22T00:13:30.952Z,88.82
2022-10-22T00:13:40.692Z,88.82
2022-10-22T00:13:51.064Z,88.82
2022-10-22T00:14:00.820Z,88.82
2022-10-22T00:14:10.803Z,88.82
2022-10-22T00:14:20.842Z,88.82
2022-10-22T00:14:30.678Z,88.82
2022-10-22T00:14:40.814Z,88.82
2022-10-22T00:14:50.755Z,88.72
2022-10-22T00:15:00.771Z,88.62
2022-10-22T00:15:10.697Z,88.62
2022-10-22T00:15:20.760Z,88.72
2022-10-22T00:15:30.653Z,88.72
2022-10-22T00:15:40.661Z,88.82
2022-10-22T00:15:50.913Z,88.82
2022-10-22T00:16:00.730Z,88.82
2022-10-22T00:16:10.681Z,88.82
2022-10-22T00:16:20.703Z,88.82
2022-10-22T00:16:30.680Z,88.82
2022-10-22T00:16:40.916Z,88.92
2022-10-22T00:16:50.900Z,88.92
2022-10-22T00:17:00.659Z,88.92
2022-10-22T00:17:11.698Z,88.92
2022-10-22T00:17:20.695Z,89.02
2022-10-22T00:17:30.878Z,89.02
2022-10-22T00:17:41.066Z,89.02
2022-10-22T00:17:50.852Z,89.02
2022-10-22T00:18:00.695Z,89.02
2022-10-22T00:18:10.827Z,89.02
2022-10-22T00:18:20.874Z,89.12
2022-10-22T00:18:30.697Z,89.17
2022-10-22T00:18:40.812Z,89.12
2022-10-22T00:18:50.870Z,89.12
2022-10-22T00:19:00.758Z,89.12
2022-10-22T00:19:10.684Z,89.12
2022-10-22T00:19:20.820Z,89.12
2022-10-22T00:19:30.855Z,89.12
2022-10-22T00:19:40.903Z,89.12
2022-10-22T00:19:50.817Z,89.23
2022-10-22T00:20:00.887Z,89.23
2022-10-22T00:20:10.758Z,89.23
2022-10-22T00:20:20.833Z,89.23
2022-10-22T00:20:30.867Z,89.23
2022-10-22T00:20:40.807Z,89.23
2022-10-22T00:20:50.611Z,89.23
2022-10-22T00:21:00.787Z,89.23
2022-10-22T00:21:10.750Z,89.23
2022-10-22T00:21:20.636Z,89.32
2022-10-22T00:21:30.934Z,89.32
2022-10-22T00:21:40.663Z,89.32
2022-10-22T00:21:50.899Z,89.32
2022-10-22T00:22:00.866Z,89.32
2022-10-22T00:22:10.707Z,89.37
2022-10-22T00:22:20.611Z,89.32
2022-10-22T00:22:30.806Z,89.32
2022-10-22T00:22:40.919Z,89.43
2022-10-22T00:23:00.659Z,89.43
2022-10-22T00:23:10.800Z,89.43
2022-10-22T00:23:20.647Z,89.43
2022-10-22T00:23:30.758Z,89.43
2022-10-22T00:23:40.691Z,89.43
2022-10-22T00:23:50.844Z,89.43
2022-10-22T00:24:00.641Z,89.47
2022-10-22T00:24:10.749Z,89.43
2022-10-22T00:24:20.713Z,89.53
2022-10-22T00:24:30.627Z,89.53
2022-10-22T00:24:40.667Z,89.53
2022-10-22T00:24:50.819Z,89.53
2022-10-22T00:25:00.852Z,89.53
2022-10-22T00:25:10.784Z,89.53
2022-10-22T00:25:20.840Z,89.53
2022-10-22T00:25:30.770Z,89.53
2022-10-22T00:25:40.779Z,89.53
2022-10-22T00:25:50.686Z,89.53
2022-10-22T00:26:00.757Z,89.63
2022-10-22T00:26:10.757Z,89.67
2022-10-22T00:26:20.687Z,89.53
2022-10-22T00:26:30.753Z,89.63
2022-10-22T00:26:40.870Z,89.63
2022-10-22T00:26:50.816Z,89.63
2022-10-22T00:27:00.641Z,89.63
2022-10-22T00:27:10.720Z,89.67
2022-10-22T00:27:20.892Z,89.73
2022-10-22T00:27:30.794Z,89.73
2022-10-22T00:27:41.011Z,89.73
2022-10-22T00:27:50.709Z,89.77
2022-10-22T00:28:00.761Z,89.77
2022-10-22T00:28:10.689Z,89.73
2022-10-22T00:28:20.611Z,89.77
2022-10-22T00:28:30.808Z,89.73
2022-10-22T00:28:40.633Z,89.73
2022-10-22T00:28:50.880Z,89.73
2022-10-22T00:29:00.651Z,89.77
2022-10-22T00:29:10.632Z,89.77
2022-10-22T00:29:20.777Z,89.77
2022-10-22T00:29:30.741Z,89.77
2022-10-22T00:29:40.664Z,89.73
2022-10-22T00:29:50.649Z,89.87
2022-10-22T00:30:00.759Z,89.83
2022-10-22T00:30:10.681Z,89.77
2022-10-22T00:30:20.735Z,89.73
2022-10-22T00:30:30.719Z,89.77
2022-10-22T00:30:40.878Z,89.83
2022-10-22T00:30:50.626Z,89.73
2022-10-22T00:31:00.870Z,89.83
2022-10-22T00:31:10.766Z,89.83
2022-10-22T00:31:20.762Z,89.87
2022-10-22T00:31:30.733Z,89.83
2022-10-22T00:31:40.713Z,89.87
2022-10-22T00:31:50.751Z,89.83
2022-10-22T00:32:00.666Z,89.87
2022-10-22T00:32:10.634Z,89.83
2022-10-22T00:32:20.700Z,89.83
2022-10-22T00:32:30.753Z,89.83
2022-10-22T00:32:40.941Z,89.83
2022-10-22T00:32:50.838Z,89.83
2022-10-22T00:33:00.864Z,89.87
2022-10-22T00:33:10.660Z,89.83
2022-10-22T00:33:20.893Z,89.83
2022-10-22T00:33:30.617Z,89.87
2022-10-22T00:33:40.865Z,89.87
2022-10-22T00:33:50.806Z,89.73
2022-10-22T00:34:00.732Z,89.77
2022-10-22T00:34:10.801Z,89.73
2022-10-22T00:34:20.835Z,89.77
2022-10-22T00:34:30.899Z,89.73
2022-10-22T00:34:40.659Z,89.87
2022-10-22T00:34:50.733Z,89.83
2022-10-22T00:35:00.747Z,89.83
2022-10-22T00:35:10.793Z,89.87
2022-10-22T00:35:20.713Z,89.87
2022-10-22T00:35:30.876Z,89.83
2022-10-22T00:35:40.796Z,89.83
2022-10-22T00:35:50.720Z,89.83
2022-10-22T00:36:00.705Z,89.87
2022-10-22T00:36:10.652Z,89.98
2022-10-22T00:36:20.697Z,89.98
2022-10-22T00:36:30.913Z,89.98
2022-10-22T00:36:40.822Z,89.83
2022-10-22T00:36:50.905Z,89.87
2022-10-22T00:37:00.860Z,89.87
2022-10-22T00:37:10.686Z,89.87
2022-10-22T00:37:20.615Z,89.83
2022-10-22T00:37:30.829Z,89.87
2022-10-22T00:37:40.887Z,89.87
2022-10-22T00:37:50.817Z,89.87
2022-10-22T00:38:00.755Z,89.83
2022-10-22T00:38:10.806Z,89.98
2022-10-22T00:38:20.861Z,89.98
2022-10-22T00:38:30.907Z,89.98
2022-10-22T00:38:40.785Z,89.98
2022-10-22T00:38:50.844Z,89.98
2022-10-22T00:39:00.701Z,89.94
2022-10-22T00:39:10.658Z,89.98
2022-10-22T00:39:20.693Z,89.98
2022-10-22T00:39:30.841Z,89.98
2022-10-22T00:39:40.744Z,89.98
2022-10-22T00:39:50.782Z,89.98
2022-10-22T00:40:00.672Z,89.98
2022-10-22T00:40:10.840Z,89.98
2022-10-22T00:40:20.668Z,89.98
2022-10-22T00:40:30.720Z,89.98
2022-10-22T00:40:40.604Z,89.87
2022-10-22T00:40:50.932Z,89.98
2022-10-22T00:41:10.827Z,89.87
2022-10-22T00:41:20.808Z,89.87
2022-10-22T00:41:30.776Z,89.87
2022-10-22T00:41:40.848Z,89.87
2022-10-22T00:41:50.615Z,89.77
2022-10-22T00:42:00.711Z,89.63
2022-10-22T00:42:10.780Z,89.67
2022-10-22T00:42:20.878Z,89.67
2022-10-22T00:42:30.851Z,89.67
2022-10-22T00:42:41.184Z,89.67
2022-10-22T00:42:50.907Z,89.67
2022-10-22T00:43:00.674Z,89.67
2022-10-22T00:43:10.857Z,89.67
2022-10-22T00:43:21.030Z,89.67
2022-10-22T00:43:30.688Z,89.57
2022-10-22T00:43:40.816Z,89.57
2022-10-22T00:43:50.861Z,89.57
2022-10-22T00:44:00.849Z,89.57
2022-10-22T00:44:10.650Z,89.47
2022-10-22T00:44:20.671Z,89.37
2022-10-22T00:44:30.809Z,89.37
2022-10-22T00:44:40.751Z,89.06
2022-10-22T00:44:50.706Z,89.06
2022-10-22T00:45:00.894Z,89.06
2022-10-22T00:45:10.979Z,89.17
2022-10-22T00:45:20.875Z,89.17
2022-10-22T00:45:30.897Z,89.17
2022-10-22T00:45:40.663Z,89.17
2022-10-22T00:45:50.868Z,89.06
2022-10-22T00:46:00.710Z,88.86
2022-10-22T00:46:10.914Z,88.76
2022-10-22T00:46:20.840Z,88.76
2022-10-22T00:46:30.738Z,88.66
2022-10-22T00:46:40.610Z,88.56
2022-10-22T00:46:50.819Z,88.66
2022-10-22T00:47:00.656Z,88.66
2022-10-22T00:47:10.886Z,88.76
2022-10-22T00:47:20.894Z,88.86
2022-10-22T00:47:30.772Z,88.96
2022-10-22T00:47:40.620Z,88.96
2022-10-22T00:47:50.691Z,89.06
2022-10-22T00:48:00.824Z,89.06
2022-10-22T00:48:10.890Z,89.06
2022-10-22T00:48:20.900Z,89.02
2022-10-22T00:48:30.698Z,89.06
2022-10-22T00:48:40.843Z,89.06
2022-10-22T00:48:50.715Z,89.06
2022-10-22T00:49:00.829Z,88.96
2022-10-22T00:49:10.797Z,88.96
2022-10-22T00:49:20.776Z,88.96
2022-10-22T00:49:30.649Z,88.96
2022-10-22T00:49:40.742Z,88.96
2022-10-22T00:49:50.659Z,88.86
2022-10-22T00:50:01.021Z,88.86
2022-10-22T00:50:10.628Z,88.86
2022-10-22T00:50:20.638Z,88.96
2022-10-22T00:50:30.690Z,88.96
2022-10-22T00:50:40.889Z,88.86
2022-10-22T00:50:50.667Z,88.56
2022-10-22T00:51:00.708Z,88.56
2022-10-22T00:51:10.795Z,88.56
2022-10-22T00:51:20.748Z,88.56
2022-10-22T00:51:30.686Z,88.66
2022-10-22T00:51:40.885Z,88.56
2022-10-22T00:51:50.639Z,88.35
2022-10-22T00:52:00.886Z,88.25
2022-10-22T00:52:10.789Z,88.35
2022-10-22T00:52:20.766Z,88.46
2022-10-22T00:52:30.713Z,88.46
2022-10-22T00:52:40.863Z,88.56
2022-10-22T00:52:50.738Z,88.66
2022-10-22T00:53:00.886Z,88.76
2022-10-22T00:53:10.922Z,88.76
2022-10-22T00:53:20.761Z,88.76
2022-10-22T00:53:30.796Z,88.86
2022-10-22T00:53:40.838Z,88.76
2022-10-22T00:53:50.873Z,88.66
2022-10-22T00:54:00.857Z,88.72
2022-10-22T00:54:10.626Z,88.86
2022-10-22T00:54:20.755Z,88.86
2022-10-22T00:54:30.716Z,88.86
2022-10-22T00:54:40.680Z,88.96
2022-10-22T00:54:50.905Z,88.96
2022-10-22T00:55:00.808Z,89.06
2022-10-22T00:55:10.616Z,89.06
2022-10-22T00:55:20.621Z,89.06
2022-10-22T00:55:30.705Z,89.06
2022-10-22T00:55:40.696Z,89.06
2022-10-22T00:55:50.768Z,89.06
2022-10-22T00:56:00.645Z,89.06
2022-10-22T00:56:10.796Z,89.06
2022-10-22T00:56:20.759Z,89.17
2022-10-22T00:56:30.819Z,89.06
2022-10-22T00:56:40.715Z,89.06
2022-10-22T00:56:50.825Z,89.06
2022-10-22T00:57:00.653Z,89.06
2022-10-22T00:57:10.814Z,88.96
2022-10-22T00:57:20.862Z,88.86
2022-10-22T00:57:30.790Z,88.86
2022-10-22T00:57:40.855Z,88.86
2022-10-22T00:57:50.876Z,88.96
2022-10-22T00:58:00.648Z,89.06
2022-10-22T00:58:10.819Z,89.06
2022-10-22T00:58:20.620Z,89.17
2022-10-22T00:58:30.703Z,89.17
2022-10-22T00:58:40.613Z,89.26
2022-10-22T00:58:50.634Z,89.26
2022-10-22T00:59:00.879Z,89.26
2022-10-22T00:59:10.836Z,89.37
2022-10-22T00:59:20.806Z,89.37
2022-10-22T00:59:30.934Z,89.47
2022-10-22T00:59:40.851Z,89.47
2022-10-22T00:59:50.824Z,89.57
2022-10-22T01:00:00.864Z,89.57
2022-10-22T01:00:10.712Z,89.57
2022-10-22T01:00:20.844Z,89.57
2022-10-22T01:00:31.044Z,89.57
2022-10-22T01:00:40.924Z,89.57
2022-10-22T01:00:50.823Z,89.67
2022-10-22T01:01:00.858Z,89.67
2022-10-22T01:01:10.718Z,89.57
2022-10-22T01:01:20.755Z,89.37
2022-10-22T01:01:30.702Z,89.37
2022-10-22T01:01:40.668Z,89.47
2022-10-22T01:01:50.823Z,89.57
2022-10-22T01:02:00.825Z,89.47
2022-10-22T01:02:10.613Z,89.47
2022-10-22T01:02:20.865Z,89.37
2022-10-22T01:02:30.904Z,89.37
2022-10-22T01:02:41.219Z,89.26
2022-10-22T01:02:50.646Z,89.37
2022-10-22T01:03:00.817Z,89.47
2022-10-22T01:03:10.828Z,89.67
2022-10-22T01:03:20.675Z,89.77
2022-10-22T01:03:30.803Z,89.67
2022-10-22T01:03:40.764Z,89.67
2022-10-22T01:03:50.854Z,89.67
2022-10-22T01:04:00.867Z,89.67
2022-10-22T01:04:10.616Z,89.67
2022-10-22T01:04:20.682Z,89.67
2022-10-22T01:04:30.644Z,89.67
2022-10-22T01:04:40.781Z,89.67
2022-10-22T01:04:50.672Z,89.57
2022-10-22T01:05:00.795Z,89.57
2022-10-22T01:05:10.741Z,89.37
2022-10-22T01:05:20.798Z,89.26
2022-10-22T01:05:30.662Z,89.47
2022-10-22T01:05:40.822Z,89.77
2022-10-22T01:05:50.832Z,89.98
2022-10-22T01:06:00.670Z,89.87
2022-10-22T01:06:10.879Z,89.87
2022-10-22T01:06:20.759Z,89.77
2022-10-22T01:06:30.660Z,89.77
2022-10-22T01:06:40.969Z,89.67
2022-10-22T01:06:50.869Z,89.57
2022-10-22T01:07:00.669Z,89.47
2022-10-22T01:07:10.645Z,89.26
2022-10-22T01:07:20.861Z,89.17
2022-10-22T01:07:30.637Z,89.17
2022-10-22T01:07:40.726Z,89.26
2022-10-22T01:07:50.692Z,89.47
2022-10-22T01:08:00.889Z,89.67
2022-10-22T01:08:20.682Z,89.77
2022-10-22T01:08:30.920Z,89.87
2022-10-22T01:08:40.920Z,89.87
2022-10-22T01:08:50.839Z,89.98
2022-10-22T01:09:00.722Z,90.08
2022-10-22T01:09:10.922Z,89.98
2022-10-22T01:09:20.714Z,89.98
2022-10-22T01:09:30.847Z,89.87
2022-10-22T01:09:40.608Z,89.87
2022-10-22T01:09:50.862Z,89.77
2022-10-22T01:10:00.660Z,89.77
2022-10-22T01:10:10.856Z,89.87
2022-10-22T01:10:20.737Z,89.98
2022-10-22T01:10:30.950Z,89.98
2022-10-22T01:10:40.702Z,89.87
2022-10-22T01:10:50.801Z,89.87
2022-10-22T01:11:00.895Z,89.81
2022-10-22T01:11:10.855Z,89.77
2022-10-22T01:11:20.809Z,89.77
2022-10-22T01:11:30.752Z,89.77
2022-10-22T01:11:40.833Z,89.87
2022-10-22T01:11:50.843Z,89.77
2022-10-22T01:12:00.757Z,89.87
2022-10-22T01:12:10.777Z,89.87
2022-10-22T01:12:20.661Z,90.02
2022-10-22T01:12:30.811Z,90.22
2022-10-22T01:12:41.142Z,90.18
2022-10-22T01:12:50.861Z,90.22
2022-10-22T01:13:00.633Z,90.28
2022-10-22T01:13:10.878Z,90.28
2022-10-22T01:13:20.668Z,90.18
2022-10-22T01:13:30.680Z,90.08
2022-10-22T01:13:40.658Z,90.08
2022-10-22T01:13:50.853Z,89.98
2022-10-22T01:14:00.694Z,90.02
2022-10-22T01:14:10.847Z,89.98
2022-10-22T01:14:20.852Z,90.02
2022-10-22T01:14:30.849Z,89.92
2022-10-22T01:14:40.807Z,89.98
2022-10-22T01:14:50.718Z,90.02
2022-10-22T01:15:00.806Z,89.92
2022-10-22T01:15:10.634Z,90.02
2022-10-22T01:15:20.645Z,90.02
2022-10-22T01:15:30.741Z,90.02
2022-10-22T01:15:40.761Z,89.87
2022-10-22T01:15:50.733Z,89.87
2022-10-22T01:16:00.795Z,89.92
2022-10-22T01:16:10.661Z,89.98
2022-10-22T01:16:20.651Z,90.12
2022-10-22T01:16:30.698Z,90.12
2022-10-22T01:16:40.882Z,90.22
2022-10-22T01:16:50.857Z,90.18
2022-10-22T01:17:00.800Z,90.32
2022-10-22T01:17:10.835Z,90.32
2022-10-22T01:17:30.829Z,90.32
2022-10-22T01:17:41.078Z,90.32
2022-10-22T01:17:50.847Z,90.32
2022-10-22T01:18:00.870Z,90.32
2022-10-22T01:18:10.781Z,90.32
2022-10-22T01:18:20.869Z,90.32
2022-10-22T01:18:30.698Z,90.32
2022-10-22T01:18:40.614Z,90.32
2022-10-22T01:18:50.785Z,90.32
2022-10-22T01:19:00.835Z,90.28
2022-10-22T01:19:10.823Z,90.32
2022-10-22T01:19:20.912Z,90.32
2022-10-22T01:19:30.668Z,90.32
2022-10-22T01:19:40.850Z,90.42
2022-10-22T01:19:50.607Z,90.42
2022-10-22T01:20:00.732Z,90.38
2022-10-22T01:20:10.772Z,90.42
2022-10-22T01:20:20.763Z,90.42
2022-10-22T01:20:30.768Z,90.53
2022-10-22T01:20:40.733Z,90.53
2022-10-22T01:20:50.713Z,90.53
2022-10-22T01:21:00.806Z,90.53
2022-10-22T01:21:10.803Z,90.53
2022-10-22T01:21:20.700Z,90.42
2022-10-22T01:21:30.640Z,90.42
2022-10-22T01:21:40.782Z,90.42
2022-10-22T01:21:50.628Z,90.38
2022-10-22T01:22:00.601Z,90.42
2022-10-22T01:22:10.661Z,90.42
2022-10-22T01:22:20.833Z,90.38
2022-10-22T01:22:30.907Z,90.42
2022-10-22T01:22:40.747Z,90.42
2022-10-22T01:22:50.813Z,90.42
2022-10-22T01:23:00.833Z,90.42
2022-10-22T01:23:10.784Z,90.53
2022-10-22T01:23:20.901Z,90.53
2022-10-22T01:23:30.793Z,90.48
2022-10-22T01:23:40.883Z,90.53
2022-10-22T01:23:50.733Z,90.48
2022-10-22T01:24:00.767Z,90.53
2022-10-22T01:24:10.726Z,90.48
2022-10-22T01:24:20.871Z,90.48
2022-10-22T01:24:30.886Z,90.48
2022-10-22T01:24:40.673Z,90.62
2022-10-22T01:24:50.877Z,90.58
2022-10-22T01:25:00.675Z,90.62
2022-10-22T01:25:10.868Z,90.58
2022-10-22T01:25:20.699Z,90.73
2022-10-22T01:25:30.623Z,90.69
2022-10-22T01:25:40.616Z,90.83
2022-10-22T01:25:50.666Z,90.83
2022-10-22T01:26:00.725Z,90.79
2022-10-22T01:26:10.750Z,90.79
2022-10-22T01:26:20.742Z,90.73
2022-10-22T01:26:30.894Z,90.73
2022-10-22T01:26:40.817Z,90.62
2022-10-22T01:26:50.645Z,90.62
2022-10-22T01:27:00.755Z,90.42
2022-10-22T01:27:10.659Z,90.32
2022-10-22T01:27:20.878Z,90.28
2022-10-22T01:27:30.923Z,90.32
2022-10-22T01:27:41.157Z,90.28
2022-10-22T01:27:50.768Z,90.38
2022-10-22T01:28:00.767Z,90.42
2022-10-22T01:28:10.930Z,90.42
2022-10-22T01:28:20.713Z,90.42
2022-10-22T01:28:30.890Z,90.48
2022-10-22T01:28:40.902Z,90.42
2022-10-22T01:28:50.706Z,90.48
2022-10-22T01:29:00.769Z,90.48
2022-10-22T01:29:10.659Z,90.62
2022-10-22T01:29:20.719Z,90.62
2022-10-22T01:29:30.739Z,90.48
2022-10-22T01:29:40.695Z,90.53
2022-10-22T01:29:50.872Z,90.42
2022-10-22T01:30:00.638Z,90.32
2022-10-22T01:30:10.836Z,90.28
2022-10-22T01:30:20.895Z,90.28
2022-10-22T01:30:30.922Z,90.32
2022-10-22T01:30:40.865Z,90.28
2022-10-22T01:30:50.643Z,90.42
2022-10-22T01:31:00.714Z,90.42
2022-10-22T01:31:10.779Z,90.48
2022-10-22T01:31:20.745Z,90.48
2022-10-22T01:31:30.801Z,90.58
2022-10-22T01:31:40.639Z,90.58
2022-10-22T01:31:50.875Z,90.73
2022-10-22T01:32:00.744Z,90.69
2022-10-22T01:32:10.997Z,90.73
2022-10-22T01:32:20.690Z,90.73
2022-10-22T01:32:30.694Z,90.79
2022-10-22T01:32:40.642Z,90.83
2022-10-22T01:32:50.834Z,90.83
2022-10-22T01:33:00.676Z,90.89
2022-10-22T01:33:10.656Z,90.89
2022-10-22T01:33:20.888Z,90.89
2022-10-22T01:33:30.726Z,90.89
2022-10-22T01:33:40.629Z,90.83
2022-10-22T01:33:50.870Z,90.79
2022-10-22T01:34:00.922Z,90.83
2022-10-22T01:34:10.733Z,90.83
2022-10-22T01:34:20.702Z,90.79
2022-10-22T01:34:30.628Z,90.83
2022-10-22T01:34:40.661Z,90.83
2022-10-22T01:34:50.873Z,90.83
2022-10-22T01:35:00.695Z,90.83
2022-10-22T01:35:10.881Z,90.79
2022-10-22T01:35:20.898Z,90.79
2022-10-22T01:35:30.645Z,90.79
2022-10-22T01:35:40.668Z,90.83
2022-10-22T01:35:50.822Z,90.79
2022-10-22T01:36:00.875Z,90.79
2022-10-22T01:36:10.635Z,90.83
2022-10-22T01:36:20.734Z,90.79
2022-10-22T01:36:30.671Z,90.83
2022-10-22T01:36:40.917Z,90.69
2022-10-22T01:36:50.630Z,90.69
2022-10-22T01:37:00.657Z,90.73
2022-10-22T01:37:10.839Z,90.69
2022-10-22T01:37:20.879Z,90.73
2022-10-22T01:37:30.606Z,90.69
2022-10-22T01:37:40.950Z,90.69
2022-10-22T01:37:50.747Z,90.58
2022-10-22T01:38:00.856Z,90.58
2022-10-22T01:38:10.862Z,90.69
2022-10-22T01:38:20.697Z,90.69
2022-10-22T01:38:30.627Z,90.69
2022-10-22T01:38:40.623Z,90.73
2022-10-22T01:38:50.874Z,90.83
2022-10-22T01:39:00.841Z,90.79
2022-10-22T01:39:10.671Z,90.79
2022-10-22T01:39:20.819Z,90.79
2022-10-22T01:39:30.614Z,90.79
2022-10-22T01:39:40.702Z,90.79
2022-10-22T01:39:50.718Z,90.79
2022-10-22T01:40:00.864Z,90.79
2022-10-22T01:40:10.714Z,90.89
2022-10-22T01:40:20.710Z,90.89
2022-10-22T01:40:30.865Z,90.89
2022-10-22T01:40:40.696Z,90.89
2022-10-22T01:40:50.866Z,90.89
2022-10-22T01:41:00.838Z,90.89
2022-10-22T01:41:10.633Z,90.89
2022-10-22T01:41:20.632Z,90.89
2022-10-22T01:41:30.824Z,90.99
2022-10-22T01:41:40.678Z,90.89
2022-10-22T01:41:50.630Z,90.83
2022-10-22T01:42:00.928Z,90.79
2022-10-22T01:42:10.680Z,90.89
2022-10-22T01:42:20.688Z,90.89
2022-10-22T01:42:30.817Z,90.89
2022-10-22T01:42:40.812Z,90.89
2022-10-22T01:42:50.635Z,90.89
2022-10-22T01:43:00.925Z,90.89
2022-10-22T01:43:10.874Z,90.89
2022-10-22T01:43:20.883Z,90.89
2022-10-22T01:43:30.667Z,90.93
2022-10-22T01:43:40.701Z,90.83
2022-10-22T01:43:50.627Z,90.79
2022-10-22T01:44:00.874Z,90.79
2022-10-22T01:44:10.660Z,90.83
2022-10-22T01:44:20.785Z,90.83
2022-10-22T01:44:30.883Z,90.79
2022-10-22T01:44:40.869Z,90.79
2022-10-22T01:44:50.747Z,90.69
2022-10-22T01:45:00.656Z,90.62
2022-10-22T01:45:10.616Z,90.48
2022-10-22T01:45:20.643Z,90.38
2022-10-22T01:45:30.885Z,90.53
2022-10-22T01:45:40.803Z,90.48
2022-10-22T01:45:50.795Z,90.38
2022-10-22T01:46:00.732Z,90.48
2022-10-22T01:46:10.868Z,90.58
2022-10-22T01:46:20.876Z,90.62
2022-10-22T01:46:30.744Z,90.58
2022-10-22T01:46:40.847Z,90.62
2022-10-22T01:46:50.804Z,90.58
2022-10-22T01:47:00.845Z,90.73
2022-10-22T01:47:10.855Z,90.69
2022-10-22T01:47:20.645Z,90.73
2022-10-22T01:47:30.726Z,90.69
2022-10-22T01:47:41.039Z,90.83
2022-10-22T01:47:50.606Z,90.83
2022-10-22T01:48:00.669Z,90.83
2022-10-22T01:48:10.620Z,90.89
2022-10-22T01:48:20.805Z,90.93
2022-10-22T01:48:30.752Z,90.93
2022-10-22T01:48:40.830Z,90.93
2022-10-22T01:48:50.814Z,90.89
2022-10-22T01:49:00.627Z,90.89
2022-10-22T01:49:10.888Z,90.89
2022-10-22T01:49:20.800Z,90.89
2022-10-22T01:49:30.839Z,90.99
2022-10-22T01:49:40.857Z,90.99
2022-10-22T01:49:50.821Z,90.93
2022-10-22T01:50:00.787Z,90.99
2022-10-22T01:50:10.727Z,91.03
2022-10-22T01:50:20.728Z,91.03
2022-10-22T01:50:30.893Z,90.99
2022-10-22T01:50:40.761Z,91.03
2022-10-22T01:50:50.829Z,91.03
2022-10-22T01:51:00.699Z,91.03
2022-10-22T01:51:10.652Z,91.03
2022-10-22T01:51:20.627Z,91.03
2022-10-22T01:51:30.847Z,91.09
2022-10-22T01:51:40.648Z,91.03
2022-10-22T01:51:50.932Z,91.13
2022-10-22T01:52:00.914Z,91.13
2022-10-22T01:52:10.737Z,91.13
2022-10-22T01:52:20.894Z,91.09
2022-10-22T01:52:30.714Z,91.13
2022-10-22T01:52:40.740Z,91.13
2022-10-22T01:52:50.694Z,91.13
2022-10-22T01:53:00.919Z,91.03
2022-10-22T01:53:10.696Z,91.13
2022-10-22T01:53:20.626Z,91.03
2022-10-22T01:53:30.880Z,91.13
2022-10-22T01:53:40.924Z,91.13
2022-10-22T01:53:50.794Z,91.03
2022-10-22T01:54:00.728Z,91.03
2022-10-22T01:54:10.654Z,91.03
2022-10-22T01:54:20.698Z,91.03
2022-10-22T01:54:30.893Z,91.03
2022-10-22T01:54:40.666Z,91.03
2022-10-22T01:54:50.926Z,91.03
2022-10-22T01:55:00.795Z,91.03
2022-10-22T01:55:10.833Z,91.13
2022-10-22T01:55:20.924Z,91.13
2022-10-22T01:55:30.892Z,91.13
2022-10-22T01:55:40.744Z,91.13
2022-10-22T01:55:50.613Z,91.13
2022-10-22T01:56:00.656Z,91.03
2022-10-22T01:56:10.732Z,90.89
2022-10-22T01:56:20.634Z,90.83
2022-10-22T01:56:30.790Z,90.93
2022-10-22T01:56:40.838Z,90.93
2022-10-22T01:56:50.762Z,90.93
2022-10-22T01:57:00.830Z,91.03
2022-10-22T01:57:10.768Z,90.93
2022-10-22T01:57:20.716Z,90.93
2022-10-22T01:57:30.693Z,90.93
2022-10-22T01:57:41.203Z,91.03
2022-10-22T01:57:50.869Z,90.99
2022-10-22T01:58:00.728Z,91.03
2022-10-22T01:58:10.633Z,91.03
2022-10-22T01:58:20.683Z,91.03
2022-10-22T01:58:30.905Z,91.03
2022-10-22T01:58:40.651Z,91.03
2022-10-22T01:58:50.732Z,91.03
2022-10-22T01:59:00.635Z,91.03
2022-10-22T01:59:10.846Z,91.03
2022-10-22T01:59:20.649Z,91.03
2022-10-22T01:59:30.887Z,91.03
2022-10-22T01:59:40.750Z,91.03
2022-10-22T01:59:50.966Z,91.03
2022-10-22T02:00:00.819Z,91.03
2022-10-22T02:00:10.711Z,91.13
2022-10-22T02:00:20.840Z,91.13
2022-10-22T02:00:30.826Z,91.24
2022-10-22T02:00:40.836Z,91.24
2022-10-22T02:00:50.859Z,91.24
2022-10-22T02:01:00.720Z,91.24
2022-10-22T02:01:10.746Z,91.24
2022-10-22T02:01:20.708Z,91.24
2022-10-22T02:01:30.771Z,91.34
2022-10-22T02:01:40.926Z,91.34
2022-10-22T02:01:50.635Z,91.34
2022-10-22T02:02:00.629Z,91.34
2022-10-22T02:02:10.822Z,91.34
2022-10-22T02:02:20.783Z,91.34
2022-10-22T02:02:30.629Z,91.44
2022-10-22T02:02:40.784Z,91.44
2022-10-22T02:02:50.728Z,91.44
2022-10-22T02:03:00.880Z,91.44
2022-10-22T02:03:10.715Z,91.44
2022-10-22T02:03:23.018Z,91.44
2022-10-22T02:03:30.628Z,91.44
2022-10-22T02:03:40.779Z,91.44
2022-10-22T02:03:50.850Z,91.54
2022-10-22T02:04:00.645Z,91.44
2022-10-22T02:04:10.828Z,91.44
2022-10-22T02:04:20.659Z,91.44
2022-10-22T02:04:30.659Z,91.44
2022-10-22T02:04:40.829Z,91.34
2022-10-22T02:04:50.762Z,91.34
2022-10-22T02:05:00.684Z,91.24
2022-10-22T02:05:10.895Z,91.24
2022-10-22T02:05:20.651Z,91.24
2022-10-22T02:05:30.633Z,91.24
2022-10-22T02:05:40.682Z,91.24
2022-10-22T02:05:50.664Z,91.24
2022-10-22T02:06:00.735Z,91.24
2022-10-22T02:06:10.760Z,91.34
2022-10-22T02:06:20.801Z,91.34
2022-10-22T02:06:30.807Z,91.34
2022-10-22T02:06:40.797Z,91.34
2022-10-22T02:06:50.790Z,91.34
2022-10-22T02:07:00.796Z,91.34
2022-10-22T02:07:10.914Z,91.34
2022-10-22T02:07:20.707Z,91.34
2022-10-22T02:07:30.694Z,91.34
2022-10-22T02:07:41.357Z,91.34
2022-10-22T02:07:50.872Z,91.34
2022-10-22T02:08:00.858Z,91.34
2022-10-22T02:08:10.619Z,91.34
2022-10-22T02:08:20.851Z,91.34
2022-10-22T02:08:30.758Z,91.34
2022-10-22T02:08:40.870Z,91.34
2022-10-22T02:08:50.929Z,91.44
2022-10-22T02:09:00.834Z,91.44
2022-10-22T02:09:10.752Z,91.44
2022-10-22T02:09:20.779Z,91.44